createdAt,value
2017-07-24T00:00:56.978Z,1009.85
2017-07-24T00:01:57.033Z,1009.87
2017-07-24T00:02:57.070Z,1009.85
2017-07-24T00:03:57.086Z,1009.87
2017-07-24T00:04:57.142Z,1009.86
2017-07-24T00:05:57.171Z,1009.88
2017-07-24T00:06:57.214Z,1009.84
2017-07-24T00:07:57.242Z,1009.87
2017-07-24T00:08:57.276Z,1009.87
2017-07-24T00:09:57.307Z,1009.85
2017-07-24T00:10:57.346Z,1009.86
2017-07-24T00:11:57.382Z,1009.83
2017-07-24T00:12:57.420Z,1009.83
2017-07-24T00:13:57.447Z,1009.77
2017-07-24T00:14:57.485Z,1009.78
2017-07-24T00:15:57.517Z,1009.8
2017-07-24T00:16:57.533Z,1009.77
2017-07-24T00:17:57.590Z,1009.72
2017-07-24T00:18:57.619Z,1009.74
2017-07-24T00:19:57.655Z,1009.7
2017-07-24T00:20:57.675Z,1009.71
2017-07-24T00:21:57.728Z,1009.72
2017-07-24T00:22:57.746Z,1009.75
2017-07-24T00:23:57.793Z,1009.73
2017-07-24T00:24:57.830Z,1009.77
2017-07-24T00:25:57.847Z,1009.79
2017-07-24T00:26:57.904Z,1009.79
2017-07-24T00:27:57.932Z,1009.76
2017-07-24T00:28:57.969Z,1009.75
2017-07-24T00:29:58.002Z,1009.79
2017-07-24T00:30:58.038Z,1009.79
2017-07-24T00:31:58.060Z,1009.77
2017-07-24T00:32:58.108Z,1009.75
2017-07-24T00:33:58.142Z,1009.74
2017-07-24T00:34:58.170Z,1009.75
2017-07-24T00:35:58.213Z,1009.77
2017-07-24T00:36:58.244Z,1009.73
2017-07-24T00:37:58.257Z,1009.7
2017-07-24T00:38:58.311Z,1009.7
2017-07-24T00:39:58.354Z,1009.68
2017-07-24T00:40:58.367Z,1009.67
2017-07-24T00:41:58.415Z,1009.68
2017-07-24T00:42:58.455Z,1009.64
2017-07-24T00:43:58.488Z,1009.66
2017-07-24T00:44:58.521Z,1009.66
2017-07-24T00:45:58.558Z,1009.68
2017-07-24T00:46:58.585Z,1009.64
2017-07-24T00:47:58.605Z,1009.6
2017-07-24T00:48:58.660Z,1009.63
2017-07-24T00:49:58.694Z,1009.58
2017-07-24T00:50:58.728Z,1009.61
2017-07-24T00:51:58.768Z,1009.59
2017-07-24T00:52:58.813Z,1009.59
2017-07-24T00:53:58.815Z,1009.59
2017-07-24T00:54:58.870Z,1009.64
2017-07-24T00:55:58.897Z,1009.65
2017-07-24T00:56:58.936Z,1009.65
2017-07-24T00:57:58.968Z,1009.62
2017-07-24T00:58:59.003Z,1009.59
2017-07-24T00:59:59.040Z,1009.6
2017-07-24T01:00:59.069Z,1009.57
2017-07-24T01:01:59.109Z,1009.55
2017-07-24T01:02:59.140Z,1009.57
2017-07-24T01:03:59.175Z,1009.56
2017-07-24T01:04:59.208Z,1009.56
2017-07-24T01:05:59.244Z,1009.56
2017-07-24T01:06:59.279Z,1009.55
2017-07-24T01:07:59.312Z,1009.54
2017-07-24T01:08:59.348Z,1009.57
2017-07-24T01:09:59.366Z,1009.56
2017-07-24T01:10:59.416Z,1009.61
2017-07-24T01:11:59.448Z,1009.56
2017-07-24T01:12:59.492Z,1009.51
2017-07-24T01:13:59.518Z,1009.53
2017-07-24T01:14:59.558Z,1009.53
2017-07-24T01:15:59.588Z,1009.57
2017-07-24T01:16:59.623Z,1009.56
2017-07-24T01:17:59.659Z,1009.53
2017-07-24T01:18:59.694Z,1009.55
2017-07-24T01:19:59.725Z,1009.52
2017-07-24T01:20:59.767Z,1009.53
2017-07-24T01:21:59.794Z,1009.49
2017-07-24T01:22:59.827Z,1009.51
2017-07-24T01:23:59.863Z,1009.51
2017-07-24T01:24:59.883Z,1009.51
2017-07-24T01:25:59.936Z,1009.54
2017-07-24T01:26:59.972Z,1009.46
2017-07-24T01:28:00.002Z,1009.51
2017-07-24T01:29:00.037Z,1009.48
2017-07-24T01:30:00.073Z,1009.44
2017-07-24T01:31:00.102Z,1009.48
2017-07-24T01:32:00.137Z,1009.46
2017-07-24T01:33:00.169Z,1009.49
2017-07-24T01:34:00.212Z,1009.42
2017-07-24T01:35:00.237Z,1009.47
2017-07-24T01:36:00.256Z,1009.4
2017-07-24T01:37:00.314Z,1009.41
2017-07-24T01:38:00.345Z,1009.41
2017-07-24T01:39:00.360Z,1009.42
2017-07-24T01:40:00.410Z,1009.43
2017-07-24T01:41:00.449Z,1009.4
2017-07-24T01:42:00.481Z,1009.4
2017-07-24T01:43:00.514Z,1009.39
2017-07-24T01:44:00.564Z,1009.36
2017-07-24T01:45:00.805Z,1009.33
2017-07-24T01:46:00.618Z,1009.36
2017-07-24T01:47:00.654Z,1009.34
2017-07-24T01:48:00.677Z,1009.32
2017-07-24T01:49:00.721Z,1009.29
2017-07-24T01:50:00.738Z,1009.3
2017-07-24T01:51:00.767Z,1009.28
2017-07-24T01:52:00.824Z,1009.25
2017-07-24T01:53:00.860Z,1009.27
2017-07-24T01:54:00.887Z,1009.29
2017-07-24T01:55:00.924Z,1009.21
2017-07-24T01:56:00.974Z,1009.22
2017-07-24T01:57:01.003Z,1009.22
2017-07-24T01:58:01.030Z,1009.17
2017-07-24T01:59:01.069Z,1009.2
2017-07-24T02:00:01.099Z,1009.1
2017-07-24T02:01:01.129Z,1009.15
2017-07-24T02:02:01.163Z,1009.12
2017-07-24T02:03:01.204Z,1009.12
2017-07-24T02:04:01.232Z,1009.13
2017-07-24T02:05:01.272Z,1009.13
2017-07-24T02:06:01.305Z,1009.11
2017-07-24T02:07:01.339Z,1009.11
2017-07-24T02:08:01.373Z,1009.12
2017-07-24T02:09:01.403Z,1009.05
2017-07-24T02:10:01.434Z,1009.07
2017-07-24T02:11:01.476Z,1009.05
2017-07-24T02:12:01.511Z,1009.06
2017-07-24T02:13:01.545Z,1009.02
2017-07-24T02:14:01.577Z,1009.02
2017-07-24T02:15:01.611Z,1009.03
2017-07-24T02:16:01.646Z,1008.96
2017-07-24T02:17:01.686Z,1008.97
2017-07-24T02:18:01.711Z,1008.97
2017-07-24T02:19:01.749Z,1008.98
2017-07-24T02:20:01.780Z,1008.98
2017-07-24T02:21:01.814Z,1008.99
2017-07-24T02:22:01.848Z,1009.01
2017-07-24T02:23:01.884Z,1008.98
2017-07-24T02:24:01.919Z,1008.95
2017-07-24T02:25:01.951Z,1008.97
2017-07-24T02:26:01.979Z,1008.96
2017-07-24T02:27:02.016Z,1008.96
2017-07-24T02:28:02.050Z,1008.9
2017-07-24T02:29:02.066Z,1008.88
2017-07-24T02:30:02.122Z,1008.88
2017-07-24T02:31:02.171Z,1008.84
2017-07-24T02:32:02.165Z,1008.89
2017-07-24T02:33:02.219Z,1008.86
2017-07-24T02:34:02.252Z,1008.88
2017-07-24T02:35:02.267Z,1008.87
2017-07-24T02:36:02.319Z,1008.86
2017-07-24T02:37:02.354Z,1008.84
2017-07-24T02:38:02.386Z,1008.86
2017-07-24T02:39:02.423Z,1008.88
2017-07-24T02:40:02.455Z,1008.88
2017-07-24T02:41:02.486Z,1008.9
2017-07-24T02:42:02.524Z,1008.88
2017-07-24T02:43:02.545Z,1008.89
2017-07-24T02:44:02.572Z,1008.85
2017-07-24T02:45:02.628Z,1008.86
2017-07-24T02:46:02.661Z,1008.87
2017-07-24T02:47:02.671Z,1008.81
2017-07-24T02:48:02.710Z,1008.83
2017-07-24T02:49:02.763Z,1008.8
2017-07-24T02:50:02.779Z,1008.81
2017-07-24T02:51:02.807Z,1008.77
2017-07-24T02:52:02.863Z,1008.77
2017-07-24T02:53:02.901Z,1008.69
2017-07-24T02:54:02.924Z,1008.76
2017-07-24T02:55:02.957Z,1008.72
2017-07-24T02:56:02.993Z,1008.66
2017-07-24T02:57:03.036Z,1008.64
2017-07-24T02:58:03.046Z,1008.64
2017-07-24T02:59:03.089Z,1008.61
2017-07-24T03:00:03.133Z,1008.65
2017-07-24T03:01:03.169Z,1008.63
2017-07-24T03:02:03.198Z,1008.63
2017-07-24T03:03:03.232Z,1008.6
2017-07-24T03:04:03.268Z,1008.58
2017-07-24T03:05:03.276Z,1008.56
2017-07-24T03:06:03.312Z,1008.57
2017-07-24T03:07:03.367Z,1008.6
2017-07-24T03:08:03.389Z,1008.5
2017-07-24T03:09:03.436Z,1008.53
2017-07-24T03:10:03.450Z,1008.51
2017-07-24T03:11:03.488Z,1008.49
2017-07-24T03:12:03.533Z,1008.51
2017-07-24T03:13:03.572Z,1008.5
2017-07-24T03:14:03.587Z,1008.53
2017-07-24T03:15:03.636Z,1008.54
2017-07-24T03:16:03.669Z,1008.54
2017-07-24T03:17:03.703Z,1008.47
2017-07-24T03:18:03.739Z,1008.5
2017-07-24T03:19:03.775Z,1008.53
2017-07-24T03:20:03.790Z,1008.5
2017-07-24T03:21:03.849Z,1008.51
2017-07-24T03:22:03.881Z,1008.54
2017-07-24T03:23:03.915Z,1008.49
2017-07-24T03:24:03.942Z,1008.53
2017-07-24T03:25:03.959Z,1008.51
2017-07-24T03:26:04.010Z,1008.52
2017-07-24T03:27:04.044Z,1008.49
2017-07-24T03:28:04.072Z,1008.5
2017-07-24T03:29:04.089Z,1008.49
2017-07-24T03:30:04.138Z,1008.48
2017-07-24T03:31:04.194Z,1008.4
2017-07-24T03:32:04.215Z,1008.42
2017-07-24T03:33:04.229Z,1008.44
2017-07-24T03:34:04.277Z,1008.48
2017-07-24T03:35:04.334Z,1008.49
2017-07-24T03:36:04.341Z,1008.52
2017-07-24T03:37:04.358Z,1008.48
2017-07-24T03:38:04.404Z,1008.5
2017-07-24T03:39:04.446Z,1008.48
2017-07-24T03:40:04.486Z,1008.48
2017-07-24T03:41:04.507Z,1008.47
2017-07-24T03:42:04.543Z,1008.45
2017-07-24T03:43:04.578Z,1008.44
2017-07-24T03:44:04.607Z,1008.47
2017-07-24T03:45:04.629Z,1008.41
2017-07-24T03:46:04.679Z,1008.44
2017-07-24T03:47:04.711Z,1008.43
2017-07-24T03:48:04.733Z,1008.44
2017-07-24T03:49:04.780Z,1008.36
2017-07-24T03:50:04.809Z,1008.37
2017-07-24T03:51:04.845Z,1008.44
2017-07-24T03:52:04.876Z,1008.35
2017-07-24T03:53:04.915Z,1008.31
2017-07-24T03:54:04.948Z,1008.37
2017-07-24T03:55:04.965Z,1008.41
2017-07-24T03:56:05.012Z,1008.47
2017-07-24T03:57:05.046Z,1008.5
2017-07-24T03:58:05.084Z,1008.5
2017-07-24T03:59:05.110Z,1008.47
2017-07-24T04:00:24.342Z,1008.5
2017-07-24T04:01:05.308Z,1008.46
2017-07-24T04:02:05.339Z,1008.49
2017-07-24T04:03:05.356Z,1008.55
2017-07-24T04:04:05.407Z,1008.51
2017-07-24T04:05:05.439Z,1008.5
2017-07-24T04:06:05.476Z,1008.43
2017-07-24T04:07:05.509Z,1008.47
2017-07-24T04:08:05.545Z,1008.45
2017-07-24T04:09:05.578Z,1008.42
2017-07-24T04:10:05.608Z,1008.37
2017-07-24T04:11:05.649Z,1008.43
2017-07-24T04:12:05.680Z,1008.37
2017-07-24T04:13:05.715Z,1008.43
2017-07-24T04:14:05.740Z,1008.42
2017-07-24T04:15:05.778Z,1008.42
2017-07-24T04:16:05.814Z,1008.42
2017-07-24T04:17:05.827Z,1008.45
2017-07-24T04:18:05.883Z,1008.39
2017-07-24T04:19:05.914Z,1008.39
2017-07-24T04:20:05.946Z,1008.41
2017-07-24T04:21:05.982Z,1008.34
2017-07-24T04:22:06.017Z,1008.33
2017-07-24T04:23:06.042Z,1008.32
2017-07-24T04:24:06.069Z,1008.31
2017-07-24T04:25:06.119Z,1008.33
2017-07-24T04:26:06.141Z,1008.3
2017-07-24T04:27:06.188Z,1008.31
2017-07-24T04:28:06.219Z,1008.28
2017-07-24T04:29:06.240Z,1008.24
2017-07-24T04:30:06.291Z,1008.22
2017-07-24T04:31:06.326Z,1008.26
2017-07-24T04:32:06.339Z,1008.22
2017-07-24T04:33:06.390Z,1008.2
2017-07-24T04:34:06.429Z,1008.23
2017-07-24T04:35:06.460Z,1008.16
2017-07-24T04:36:06.495Z,1008.18
2017-07-24T04:37:06.534Z,1008.11
2017-07-24T04:38:06.566Z,1008.12
2017-07-24T04:39:06.599Z,1008.13
2017-07-24T04:40:06.632Z,1008.08
2017-07-24T04:41:06.668Z,1008.1
2017-07-24T04:42:06.707Z,1008.02
2017-07-24T04:43:06.738Z,1008.01
2017-07-24T04:44:06.770Z,1007.99
2017-07-24T04:45:06.810Z,1008
2017-07-24T04:46:06.842Z,1007.96
2017-07-24T04:47:06.874Z,1007.95
2017-07-24T04:48:06.906Z,1007.95
2017-07-24T04:49:06.949Z,1007.94
2017-07-24T04:50:06.979Z,1007.95
2017-07-24T04:51:07.010Z,1007.97
2017-07-24T04:52:07.049Z,1007.93
2017-07-24T04:53:07.085Z,1007.91
2017-07-24T04:54:07.117Z,1007.88
2017-07-24T04:55:07.153Z,1007.79
2017-07-24T04:56:07.188Z,1007.81
2017-07-24T04:57:07.221Z,1007.8
2017-07-24T04:58:07.255Z,1007.77
2017-07-24T04:59:07.293Z,1007.79
2017-07-24T05:00:07.330Z,1007.72
2017-07-24T05:01:07.339Z,1007.72
2017-07-24T05:02:07.401Z,1007.73
2017-07-24T05:03:07.430Z,1007.7
2017-07-24T05:04:07.457Z,1007.69
2017-07-24T05:05:07.501Z,1007.65
2017-07-24T05:06:07.546Z,1007.73
2017-07-24T05:07:07.592Z,1007.7
2017-07-24T05:08:07.608Z,1007.73
2017-07-24T05:09:07.644Z,1007.74
2017-07-24T05:10:07.678Z,1007.72
2017-07-24T05:11:07.714Z,1007.68
2017-07-24T05:12:07.751Z,1007.63
2017-07-24T05:13:07.783Z,1007.65
2017-07-24T05:14:07.819Z,1007.66
2017-07-24T05:15:07.855Z,1007.63
2017-07-24T05:16:07.887Z,1007.7
2017-07-24T05:17:07.924Z,1007.64
2017-07-24T05:18:07.935Z,1007.67
2017-07-24T05:19:07.997Z,1007.66
2017-07-24T05:20:08.030Z,1007.64
2017-07-24T05:21:08.060Z,1007.66
2017-07-24T05:22:08.104Z,1007.68
2017-07-24T05:23:08.137Z,1007.67
2017-07-24T05:24:08.174Z,1007.69
2017-07-24T05:25:08.207Z,1007.68
2017-07-24T05:26:08.250Z,1007.68
2017-07-24T05:27:08.263Z,1007.69
2017-07-24T05:28:08.367Z,1007.73
2017-07-24T05:29:08.352Z,1007.71
2017-07-24T05:30:08.388Z,1007.68
2017-07-24T05:31:08.428Z,1007.68
2017-07-24T05:32:08.453Z,1007.65
2017-07-24T05:33:08.498Z,1007.68
2017-07-24T05:34:08.531Z,1007.64
2017-07-24T05:35:08.563Z,1007.65
2017-07-24T05:36:08.742Z,1007.64
2017-07-24T05:37:08.641Z,1007.61
2017-07-24T05:38:08.676Z,1007.66
2017-07-24T05:39:08.711Z,1007.62
2017-07-24T05:40:08.750Z,1007.61
2017-07-24T05:41:08.780Z,1007.64
2017-07-24T05:42:08.807Z,1007.64
2017-07-24T05:43:08.856Z,1007.64
2017-07-24T05:44:08.895Z,1007.62
2017-07-24T05:45:08.928Z,1007.65
2017-07-24T05:46:08.954Z,1007.66
2017-07-24T05:47:09.001Z,1007.67
2017-07-24T05:48:09.023Z,1007.62
2017-07-24T05:49:09.075Z,1007.61
2017-07-24T05:50:09.093Z,1007.59
2017-07-24T05:51:09.147Z,1007.62
2017-07-24T05:52:09.180Z,1007.64
2017-07-24T05:53:09.218Z,1007.63
2017-07-24T05:54:09.258Z,1007.65
2017-07-24T05:55:09.292Z,1007.65
2017-07-24T05:56:09.326Z,1007.63
2017-07-24T05:57:09.362Z,1007.61
2017-07-24T05:58:09.399Z,1007.62
2017-07-24T05:59:09.438Z,1007.6
2017-07-24T06:00:09.451Z,1007.56
2017-07-24T06:01:09.508Z,1007.55
2017-07-24T06:02:09.545Z,1007.53
2017-07-24T06:03:09.581Z,1007.55
2017-07-24T06:04:09.620Z,1007.55
2017-07-24T06:05:09.657Z,1007.53
2017-07-24T06:06:09.693Z,1007.49
2017-07-24T06:07:09.711Z,1007.48
2017-07-24T06:08:09.743Z,1007.49
2017-07-24T06:09:09.802Z,1007.53
2017-07-24T06:10:09.839Z,1007.49
2017-07-24T06:11:09.861Z,1007.51
2017-07-24T06:12:09.910Z,1007.55
2017-07-24T06:13:09.954Z,1007.54
2017-07-24T06:14:09.986Z,1007.53
2017-07-24T06:15:10.020Z,1007.55
2017-07-24T06:16:10.061Z,1007.52
2017-07-24T06:17:10.093Z,1007.5
2017-07-24T06:18:10.133Z,1007.52
2017-07-24T06:19:10.174Z,1007.48
2017-07-24T06:20:10.210Z,1007.49
2017-07-24T06:21:10.248Z,1007.49
2017-07-24T06:22:10.261Z,1007.54
2017-07-24T06:23:10.324Z,1007.48
2017-07-24T06:24:10.341Z,1007.46
2017-07-24T06:25:10.394Z,1007.49
2017-07-24T06:26:10.409Z,1007.5
2017-07-24T06:27:10.454Z,1007.53
2017-07-24T06:28:10.502Z,1007.53
2017-07-24T06:29:10.546Z,1007.54
2017-07-24T06:30:10.580Z,1007.54
2017-07-24T06:31:10.621Z,1007.55
2017-07-24T06:32:10.653Z,1007.54
2017-07-24T06:33:10.697Z,1007.52
2017-07-24T06:34:10.730Z,1007.56
2017-07-24T06:35:10.755Z,1007.47
2017-07-24T06:36:10.962Z,1007.44
2017-07-24T06:37:10.847Z,1007.44
2017-07-24T06:38:10.881Z,1007.42
2017-07-24T06:39:10.921Z,1007.44
2017-07-24T06:40:10.958Z,1007.46
2017-07-24T06:41:10.997Z,1007.45
2017-07-24T06:42:11.037Z,1007.43
2017-07-24T06:43:11.078Z,1007.42
2017-07-24T06:44:11.111Z,1007.41
2017-07-24T06:45:11.154Z,1007.39
2017-07-24T06:46:11.193Z,1007.43
2017-07-24T06:47:11.228Z,1007.44
2017-07-24T06:48:11.262Z,1007.45
2017-07-24T06:49:11.309Z,1007.48
2017-07-24T06:50:11.355Z,1007.47
2017-07-24T06:51:11.387Z,1007.44
2017-07-24T06:52:11.422Z,1007.43
2017-07-24T06:53:11.457Z,1007.47
2017-07-24T06:54:11.500Z,1007.48
2017-07-24T06:55:11.540Z,1007.46
2017-07-24T06:56:11.574Z,1007.47
2017-07-24T06:57:11.615Z,1007.44
2017-07-24T06:58:11.657Z,1007.47
2017-07-24T06:59:11.695Z,1007.45
2017-07-24T07:00:11.733Z,1007.47
2017-07-24T07:01:11.769Z,1007.44
2017-07-24T07:02:11.816Z,1007.48
2017-07-24T07:03:11.848Z,1007.44
2017-07-24T07:04:11.875Z,1007.49
2017-07-24T07:05:11.929Z,1007.51
2017-07-24T07:06:11.971Z,1007.49
2017-07-24T07:07:12.040Z,1007.5
2017-07-24T07:08:12.047Z,1007.47
2017-07-24T07:09:12.083Z,1007.48
2017-07-24T07:10:12.122Z,1007.45
2017-07-24T07:11:12.153Z,1007.4
2017-07-24T07:12:12.190Z,1007.42
2017-07-24T07:13:12.245Z,1007.44
2017-07-24T07:14:12.264Z,1007.44
2017-07-24T07:15:12.318Z,1007.46
2017-07-24T07:16:12.346Z,1007.48
2017-07-24T07:17:12.382Z,1007.47
2017-07-24T07:18:12.441Z,1007.45
2017-07-24T07:19:12.479Z,1007.44
2017-07-24T07:20:12.522Z,1007.42
2017-07-24T07:21:12.565Z,1007.44
2017-07-24T07:22:12.600Z,1007.4
2017-07-24T07:23:12.634Z,1007.42
2017-07-24T07:24:12.680Z,1007.46
2017-07-24T07:25:12.718Z,1007.44
2017-07-24T07:26:12.758Z,1007.51
2017-07-24T07:27:12.903Z,1007.47
2017-07-24T07:28:12.846Z,1007.47
2017-07-24T07:29:12.881Z,1007.5
2017-07-24T07:30:12.935Z,1007.45
2017-07-24T07:31:12.959Z,1007.49
2017-07-24T07:32:13.006Z,1007.43
2017-07-24T07:33:13.047Z,1007.41
2017-07-24T07:34:13.065Z,1007.43
2017-07-24T07:35:13.126Z,1007.43
2017-07-24T07:36:13.167Z,1007.41
2017-07-24T07:37:13.206Z,1007.39
2017-07-24T07:38:13.247Z,1007.39
2017-07-24T07:39:13.283Z,1007.34
2017-07-24T07:40:13.328Z,1007.31
2017-07-24T07:41:13.372Z,1007.38
2017-07-24T07:42:13.411Z,1007.35
2017-07-24T07:43:13.464Z,1007.36
2017-07-24T07:44:13.490Z,1007.38
2017-07-24T07:45:13.534Z,1007.39
2017-07-24T07:46:13.578Z,1007.38
2017-07-24T07:47:13.613Z,1007.33
2017-07-24T07:48:13.657Z,1007.34
2017-07-24T07:49:13.696Z,1007.32
2017-07-24T07:50:13.742Z,1007.25
2017-07-24T07:51:13.783Z,1007.41
2017-07-24T07:52:13.823Z,1007.5
2017-07-24T07:53:13.865Z,1007.66
2017-07-24T07:54:13.899Z,1007.57
2017-07-24T07:55:13.945Z,1007.51
2017-07-24T07:56:13.990Z,1007.47
2017-07-24T07:57:14.037Z,1007.5
2017-07-24T07:58:14.078Z,1007.54
2017-07-24T07:59:14.118Z,1007.52
2017-07-24T08:00:14.163Z,1007.51
2017-07-24T08:01:14.180Z,1007.51
2017-07-24T08:02:14.250Z,1007.41
2017-07-24T08:03:14.293Z,1007.35
2017-07-24T08:04:14.331Z,1007.4
2017-07-24T08:05:14.377Z,1007.41
2017-07-24T08:06:14.421Z,1007.45
2017-07-24T08:07:14.448Z,1007.4
2017-07-24T08:08:14.487Z,1007.39
2017-07-24T08:09:14.553Z,1007.51
2017-07-24T08:10:14.601Z,1007.56
2017-07-24T08:11:14.641Z,1007.54
2017-07-24T08:12:14.685Z,1007.56
2017-07-24T08:13:14.729Z,1007.62
2017-07-24T08:14:14.787Z,1007.64
2017-07-24T08:15:14.820Z,1007.68
2017-07-24T08:16:14.862Z,1007.65
2017-07-24T08:17:14.909Z,1007.63
2017-07-24T08:18:15.061Z,1007.61
2017-07-24T08:19:15.003Z,1007.63
2017-07-24T08:20:15.041Z,1007.66
2017-07-24T08:21:15.090Z,1007.66
2017-07-24T08:22:15.137Z,1007.66
2017-07-24T08:23:15.160Z,1007.59
2017-07-24T08:24:15.221Z,1007.64
2017-07-24T08:25:15.299Z,1007.65
2017-07-24T08:26:15.306Z,1007.61
2017-07-24T08:27:15.359Z,1007.59
2017-07-24T08:28:15.389Z,1007.5
2017-07-24T08:29:15.457Z,1007.5
2017-07-24T08:30:15.506Z,1007.51
2017-07-24T08:31:15.544Z,1007.43
2017-07-24T08:32:15.590Z,1007.45
2017-07-24T08:33:15.641Z,1007.61
2017-07-24T08:34:15.683Z,1007.58
2017-07-24T08:35:15.732Z,1007.5
2017-07-24T08:36:15.777Z,1007.57
2017-07-24T08:37:15.824Z,1007.6
2017-07-24T08:38:15.874Z,1007.62
2017-07-24T08:39:15.894Z,1007.67
2017-07-24T08:40:15.960Z,1007.61
2017-07-24T08:41:16.008Z,1007.59
2017-07-24T08:42:16.053Z,1007.52
2017-07-24T08:43:16.105Z,1007.52
2017-07-24T08:44:16.126Z,1007.51
2017-07-24T08:45:16.195Z,1007.49
2017-07-24T08:46:16.252Z,1007.38
2017-07-24T08:47:16.289Z,1007.38
2017-07-24T08:48:16.338Z,1007.42
2017-07-24T08:49:16.381Z,1007.38
2017-07-24T08:50:16.429Z,1007.43
2017-07-24T08:51:16.477Z,1007.45
2017-07-24T08:52:16.525Z,1007.44
2017-07-24T08:53:16.565Z,1007.36
2017-07-24T08:54:16.810Z,1007.44
2017-07-24T08:55:16.646Z,1007.48
2017-07-24T08:56:16.709Z,1007.57
2017-07-24T08:57:16.756Z,1007.55
2017-07-24T08:58:16.799Z,1007.53
2017-07-24T08:59:16.832Z,1007.51
2017-07-24T09:00:16.890Z,1007.41
2017-07-24T09:01:17.199Z,1007.39
2017-07-24T09:02:16.981Z,1007.35
2017-07-24T09:03:17.037Z,1007.36
2017-07-24T09:04:17.081Z,1007.4
2017-07-24T09:05:17.128Z,1007.4
2017-07-24T09:06:17.201Z,1007.3
2017-07-24T09:07:17.223Z,1007.27
2017-07-24T09:08:17.269Z,1007.03
2017-07-24T09:09:17.318Z,1006.95
2017-07-24T09:10:17.359Z,1007.12
2017-07-24T09:11:17.408Z,1007.07
2017-07-24T09:12:17.453Z,1007.02
2017-07-24T09:13:17.483Z,1007.05
2017-07-24T09:14:17.531Z,1007
2017-07-24T09:15:17.590Z,1006.97
2017-07-24T09:16:17.620Z,1006.97
2017-07-24T09:17:17.684Z,1006.92
2017-07-24T09:18:17.710Z,1006.97
2017-07-24T09:19:17.773Z,1006.94
2017-07-24T09:20:17.824Z,1006.95
2017-07-24T09:21:17.861Z,1006.92
2017-07-24T09:22:17.907Z,1006.88
2017-07-24T09:23:17.952Z,1006.94
2017-07-24T09:24:18.001Z,1006.97
2017-07-24T09:25:18.025Z,1006.94
2017-07-24T09:26:18.071Z,1007
2017-07-24T09:27:18.129Z,1007.01
2017-07-24T09:28:18.185Z,1006.98
2017-07-24T09:29:18.198Z,1006.98
2017-07-24T09:30:18.245Z,1007.02
2017-07-24T09:31:18.294Z,1006.94
2017-07-24T09:32:18.353Z,1006.93
2017-07-24T09:33:18.394Z,1006.88
2017-07-24T09:34:18.440Z,1006.84
2017-07-24T09:35:18.484Z,1006.9
2017-07-24T09:36:18.730Z,1006.8
2017-07-24T09:37:18.548Z,1006.74
2017-07-24T09:38:18.617Z,1006.9
2017-07-24T09:39:18.644Z,1006.93
2017-07-24T09:40:18.701Z,1007.06
2017-07-24T09:41:18.729Z,1007.15
2017-07-24T09:42:18.792Z,1007.15
2017-07-24T09:43:18.837Z,1007.17
2017-07-24T09:44:18.978Z,1007.18
2017-07-24T09:45:18.920Z,1007.24
2017-07-24T09:46:18.971Z,1007.16
2017-07-24T09:47:19.012Z,1007.27
2017-07-24T09:48:19.052Z,1007.32
2017-07-24T09:49:19.100Z,1007.38
2017-07-24T09:50:19.152Z,1007.32
2017-07-24T09:51:19.190Z,1007.25
2017-07-24T09:52:19.226Z,1007.3
2017-07-24T09:53:19.269Z,1007.19
2017-07-24T09:54:19.327Z,1007.28
2017-07-24T09:55:19.373Z,1007.28
2017-07-24T09:56:19.398Z,1007.18
2017-07-24T09:57:19.463Z,1007.19
2017-07-24T09:58:19.512Z,1007.22
2017-07-24T09:59:19.567Z,1007.16
2017-07-24T10:00:19.601Z,1007.17
2017-07-24T10:01:19.648Z,1007.03
2017-07-24T10:02:19.695Z,1007.15
2017-07-24T10:03:19.745Z,1007.13
2017-07-24T10:04:19.769Z,1007.21
2017-07-24T10:05:19.833Z,1007.19
2017-07-24T10:06:19.862Z,1007.11
2017-07-24T10:07:19.927Z,1007.12
2017-07-24T10:08:19.969Z,1007.03
2017-07-24T10:09:20.000Z,1007.05
2017-07-24T10:10:20.067Z,1007.03
2017-07-24T10:11:20.112Z,1007.04
2017-07-24T10:12:20.164Z,1007
2017-07-24T10:13:20.203Z,1006.96
2017-07-24T10:14:20.250Z,1006.91
2017-07-24T10:15:20.297Z,1006.92
2017-07-24T10:16:20.346Z,1007
2017-07-24T10:17:20.394Z,1006.9
2017-07-24T10:18:20.437Z,1006.77
2017-07-24T10:19:20.478Z,1006.9
2017-07-24T10:20:20.528Z,1007.02
2017-07-24T10:21:20.569Z,1007
2017-07-24T10:22:20.618Z,1007.01
2017-07-24T10:23:20.662Z,1007.12
2017-07-24T10:24:20.709Z,1007.06
2017-07-24T10:25:20.753Z,1007.03
2017-07-24T10:26:20.803Z,1007.07
2017-07-24T10:27:20.837Z,1006.93
2017-07-24T10:28:20.890Z,1006.86
2017-07-24T10:29:20.944Z,1006.84
2017-07-24T10:30:20.995Z,1006.75
2017-07-24T10:31:21.026Z,1006.51
2017-07-24T10:32:21.066Z,1006.72
2017-07-24T10:33:21.109Z,1006.76
2017-07-24T10:34:21.157Z,1006.8
2017-07-24T10:35:21.198Z,1006.81
2017-07-24T10:36:21.247Z,1006.81
2017-07-24T10:37:21.288Z,1006.96
2017-07-24T10:38:21.333Z,1007.27
2017-07-24T10:39:21.382Z,1006.7
2017-07-24T10:40:21.401Z,1006.9
2017-07-24T10:41:21.458Z,1007.1
2017-07-24T10:42:21.505Z,1006.81
2017-07-24T10:43:21.555Z,1006.67
2017-07-24T10:44:21.592Z,1006.82
2017-07-24T10:45:21.637Z,1006.67
2017-07-24T10:46:21.681Z,1006.76
2017-07-24T10:47:21.737Z,1006.84
2017-07-24T10:48:21.757Z,1006.97
2017-07-24T10:49:21.808Z,1007.11
2017-07-24T10:50:21.855Z,1007.14
2017-07-24T10:51:21.894Z,1007.26
2017-07-24T10:52:21.919Z,1006.77
2017-07-24T10:53:22.037Z,1006.85
2017-07-24T10:54:22.024Z,1007.35
2017-07-24T10:55:22.045Z,1006.85
2017-07-24T10:56:22.107Z,1006.96
2017-07-24T10:57:22.151Z,1006.75
2017-07-24T10:58:22.172Z,1006.72
2017-07-24T10:59:22.237Z,1006.71
2017-07-24T11:00:22.282Z,1006.7
2017-07-24T11:01:22.504Z,1006.65
2017-07-24T11:02:22.352Z,1006.59
2017-07-24T11:03:22.608Z,1006.41
2017-07-24T11:04:22.451Z,1006.29
2017-07-24T11:05:22.493Z,1006.11
2017-07-24T11:06:22.603Z,1006.12
2017-07-24T11:07:22.556Z,1006.06
2017-07-24T11:08:22.619Z,1006.01
2017-07-24T11:09:22.659Z,1006
2017-07-24T11:10:22.697Z,1006
2017-07-24T11:11:22.744Z,1006.02
2017-07-24T11:12:22.790Z,1005.96
2017-07-24T11:13:22.827Z,1005.94
2017-07-24T11:14:22.866Z,1005.94
2017-07-24T11:15:22.891Z,1005.88
2017-07-24T11:16:22.961Z,1005.85
2017-07-24T11:17:22.994Z,1005.89
2017-07-24T11:18:23.020Z,1005.85
2017-07-24T11:19:23.076Z,1005.88
2017-07-24T11:20:23.129Z,1005.86
2017-07-24T11:21:23.157Z,1005.82
2017-07-24T11:22:23.199Z,1005.84
2017-07-24T11:23:23.248Z,1005.8
2017-07-24T11:24:23.285Z,1005.8
2017-07-24T11:25:23.322Z,1005.76
2017-07-24T11:26:23.368Z,1005.74
2017-07-24T11:27:23.410Z,1005.72
2017-07-24T11:28:23.433Z,1005.66
2017-07-24T11:29:23.495Z,1005.64
2017-07-24T11:30:23.546Z,1005.6
2017-07-24T11:31:23.575Z,1005.66
2017-07-24T11:32:23.620Z,1005.64
2017-07-24T11:33:23.656Z,1005.55
2017-07-24T11:34:23.700Z,1005.52
2017-07-24T11:35:23.741Z,1005.53
2017-07-24T11:36:23.781Z,1005.53
2017-07-24T11:37:23.821Z,1005.46
2017-07-24T11:38:23.859Z,1005.39
2017-07-24T11:39:23.913Z,1005.42
2017-07-24T11:40:23.946Z,1005.37
2017-07-24T11:41:23.985Z,1005.39
2017-07-24T11:42:24.031Z,1005.39
2017-07-24T11:43:24.050Z,1005.37
2017-07-24T11:44:24.109Z,1005.36
2017-07-24T11:45:24.159Z,1005.34
2017-07-24T11:46:24.194Z,1005.34
2017-07-24T11:47:24.233Z,1005.32
2017-07-24T11:48:24.274Z,1005.28
2017-07-24T11:49:24.320Z,1005.28
2017-07-24T11:50:24.356Z,1005.35
2017-07-24T11:51:24.378Z,1005.32
2017-07-24T11:52:24.421Z,1005.35
2017-07-24T11:53:24.483Z,1005.3
2017-07-24T11:54:24.521Z,1005.32
2017-07-24T11:55:24.556Z,1005.28
2017-07-24T11:56:24.607Z,1005.26
2017-07-24T11:57:24.645Z,1005.27
2017-07-24T11:58:24.682Z,1005.25
2017-07-24T11:59:24.726Z,1005.29
2017-07-24T12:00:24.968Z,1005.3
2017-07-24T12:01:31.067Z,1005.33
2017-07-24T12:02:24.846Z,1005.32
2017-07-24T12:03:24.888Z,1005.31
2017-07-24T12:04:24.918Z,1005.29
2017-07-24T12:05:24.952Z,1005.28
2017-07-24T12:06:25.021Z,1005.27
2017-07-24T12:07:25.046Z,1005.26
2017-07-24T12:08:25.087Z,1005.18
2017-07-24T12:09:25.147Z,1005.18